Metar Cercanos

 

LEPA - Palma De Mallorc, Spain
Distance from station: ONO 38km
Actualización: Tue, 29-Nov-2022 2:30pm CET
Few Clouds
Few Clouds
 Viento del NNO
Viento: NNO 24 km/h
Temperatura: 17°C
Rocío: 9°C
Humedad: 59%
Barómetro: 1015 hPa
Clouds: Few Clouds
Visibility: 10 km
Cloud details: Few Clouds 610 m
2022/11/29 13:30 LEPA 291330Z 33013KT 9999 FEW020 17/09 Q1015 NOSIG
LEMH - Mahon/Menorca Is, Spain
Distance from station: ENE 105km
Actualización: Tue, 29-Nov-2022 2:30pm CET
Nearby showers, Muy nuboso
Nearby showers, Muy nuboso
 Viento del N
Viento: N 11 km/h
Temperatura: 13°C
Rocío: 9°C
Humedad: 77%
Barómetro: 1015 hPa
Resumen: Nearby Showers
Clouds: Muy nuboso
Visibility: 10 km
Cloud details: Few Clouds 975 m
Muy nuboso 1219 m
2022/11/29 13:30 LEMH 291330Z 35006KT 9999 VCSH FEW032TCU BKN040 13/09 Q1015
 
LEIB - Ibiza/Es Codola, Spain
Distance from station: OSO 165km
Actualización: Tue, 29-Nov-2022 2:30pm CET
Few Clouds
Few Clouds
 Viento del ONO
Viento: ONO 15 km/h
Temperatura: 18°C
Rocío: 7°C
Humedad: 49%
Barómetro: 1017 hPa
Clouds: Few Clouds
Visibility: 10 km
Cloud details: Few Clouds 762 m
2022/11/29 13:30 LEIB 291330Z 30008KT 260V340 9999 FEW025 18/07 Q1017 NOSIG
LEBL - Barcelona Airpor, Spain
Distance from station: NNO 225km
Actualización: Tue, 29-Nov-2022 2:30pm CET
Parcialmente nuboso
Parcialmente nuboso
 Viento del NNO
Viento: NNO 15 km/h
Temperatura: 14°C
Rocío: 5°C
Humedad: 55%
Barómetro: 1016 hPa
Clouds: Parcialmente nuboso
Visibility: 10 km
Cloud details: Few Clouds 914 m
Parcialmente nuboso 1524 m
2022/11/29 13:30 LEBL 291330Z 33008KT 310V010 9999 FEW030 SCT050 14/05 Q1016 NOSIG
 
LEVC - Valencia (civ/Mi, Spain
Distance from station: NO 188km
Actualización: Tue, 29-Nov-2022 2:30pm CET
Despejado
Despejado
 Viento del O
Viento: O 6 km/h
Temperatura: 19°C
Rocío: 2°C
Humedad: 32%
Barómetro: 1017 hPa
Resumen: Despejado
Visibility: greater than 10 km
2022/11/29 13:30 LEVC 291330Z 26003KT 200V340 CAVOK 19/02 Q1017 NOSIG
LEGE - Gerona/Costa Bra, Spain
Distance from station: N 276km
Actualización: Tue, 29-Nov-2022 2:30pm CET
Parcialmente nuboso
Parcialmente nuboso
 Viento del E
Viento: E 7 km/h
Temperatura: 14°C
Rocío: 7°C
Humedad: 63%
Barómetro: 1016 hPa
Clouds: Parcialmente nuboso
Visibility: 10 km
Cloud details: Parcialmente nuboso 2743 m
2022/11/29 13:30 LEGE 291330Z 08004KT 040V120 9999 SCT090 14/07 Q1016
 
LEAL - Alicante/El Alte, Spain
Distance from station: OSO 344km
Actualización: Tue, 29-Nov-2022 2:30pm CET
Despejado
Despejado
 Viento del E
Viento: E 11 km/h
Temperatura: 19°C
Rocío: 4°C
Humedad: 37%
Barómetro: 1017 hPa
Resumen: Despejado
Visibility: greater than 10 km
2022/11/29 13:30 LEAL 291330Z 10006KT 070V140 CAVOK 19/04 Q1017 NOSIG
LEAM - Almeria Airport, Spain
Distance from station: SSO 56km
Actualización: Tue, 29-Nov-2022 2:30pm CET
Despejado
Despejado
 Viento del S
Viento: S 7 km/h
Temperatura: 18°C
Rocío: 7°C
Humedad: 49%
Barómetro: 1019 hPa
Resumen: Despejado
Visibility: greater than 10 km
2022/11/29 13:30 LEAM 291330Z 18004KT 140V250 CAVOK 18/07 Q1019
 
LEZG - Zaragoza (mil/Ci, Spain
Distance from station: NO 431km
Actualización: Tue, 29-Nov-2022 2:30pm CET
Muy nuboso
Muy nuboso
 Viento del NO
Viento: NO 41 km/h
Temperatura: 15°C
Rocío: 6°C
Humedad: 55%
Barómetro: 1019 hPa
Clouds: Muy nuboso
Visibility: 10 km
Cloud details: Muy nuboso 1372 m
2022/11/29 13:30 LEZG 291330Z 31022KT 9999 BKN045 15/06 Q1019
LEMD - Madrid/Barajas, Spain
Distance from station: ONO 234km
Actualización: Tue, 29-Nov-2022 2:30pm CET
Despejado
Despejado
 Viento del varies
Viento: varies 6 km/h
Temperatura: 12°C
Rocío: 3°C
Humedad: 54%
Barómetro: 1021 hPa
Resumen: Despejado
Visibility: greater than 10 km
2022/11/29 13:30 LEMD 291330Z VRB03KT CAVOK 12/03 Q1021 NOSIG
 
LEGR - Granada Airport, Spain
Distance from station: OSO 62km
Actualización: Tue, 29-Nov-2022 2:30pm CET
Despejado
Despejado
 Viento del varies
Viento: varies 4 km/h
Temperatura: 15°C
Rocío: -1°C
Humedad: 34%
Barómetro: 1020 hPa
Resumen: Despejado
Visibility: greater than 10 km
2022/11/29 13:30 LEGR 291330Z VRB02KT CAVOK 15/M01 Q1020
LEMG - Malaga (civ/Mil), Spain
Distance from station: OSO 227km
Actualización: Tue, 29-Nov-2022 2:30pm CET
Despejado
Despejado
 Viento del SE
Viento: SE 11 km/h
Temperatura: 18°C
Rocío: 7°C
Humedad: 49%
Barómetro: 1019 hPa
Resumen: Despejado
Visibility: greater than 10 km
2022/11/29 13:30 LEMG 291330Z 13006KT 100V170 CAVOK 18/07 Q1019 NOSIG
 
LEZL - Sevilla (civ/Mil, Spain
Distance from station: S 318km
Actualización: Tue, 29-Nov-2022 2:30pm CET
Despejado
Despejado
 Viento del E
Viento: E 17 km/h
Temperatura: 18°C
Rocío: 2°C
Humedad: 34%
Barómetro: 1020 hPa
Resumen: Despejado
Visibility: greater than 10 km
2022/11/29 13:30 LEZL 291330Z 08009KT CAVOK 18/02 Q1020 NOSIG
LEVT - Vitoria, Spain
Distance from station: NO 226km
Actualización: Tue, 29-Nov-2022 2:30pm CET
Muy nuboso
Muy nuboso
 Viento del NO
Viento: NO 17 km/h, Racha: 35 km/h
Temperatura: 10°C
Sensación frio: 8°C
Rocío: 6°C
Humedad: 76%
Barómetro: 1021 hPa
Clouds: Muy nuboso
Visibility: 10 km
Cloud details: Few Clouds 579 m
Parcialmente nuboso 732 m
Muy nuboso 975 m
2022/11/29 13:30 LEVT 291330Z 31009G19KT 260V350 9999 FEW019 SCT024 BKN032 10/06 Q1021
 
LEBB - Bilbao/Sondica, Spain
Distance from station: NNO 235km
Actualización: Tue, 29-Nov-2022 2:30pm CET
Lluvia débil, Muy nuboso
Lluvia débil, Muy nuboso
 Viento del NO
Viento: NO 15 km/h
Temperatura: 13°C
Rocío: 11°C
Humedad: 88%
Barómetro: 1022 hPa
Resumen: Lluvia débil
Clouds: Muy nuboso
Visibility: 9 km
Cloud details: Few Clouds 610 m
Parcialmente nuboso 853 m
Muy nuboso 1372 m
2022/11/29 13:30 LEBB 291330Z 31008KT 9000 -RA FEW020 SCT028 BKN045 13/11 Q1022 TEMPO SHRA FEW030TCU
LESO - San Sebastian/Fu, Spain
Distance from station: N 231km
Actualización: Tue, 29-Nov-2022 2:30pm CET
Lluvia, Muy nuboso
Lluvia, Muy nuboso
 Viento del ONO
Viento: ONO 15 km/h
Temperatura: 12°C
Rocío: 11°C
Humedad: 94%
Barómetro: 1021 hPa
Resumen: Lluvia
Clouds: Muy nuboso
Visibility: 3 km
Cloud details: Parcialmente nuboso 335 m
Muy nuboso 610 m
2022/11/29 13:30 LESO 291330Z 29008KT 230V360 2800 RA SCT011 BKN020 12/11 Q1021
 
LEVD - Valladolid(Mil/C, Spain
Distance from station: ONO 239km
Actualización: Tue, 29-Nov-2022 2:30pm CET
Nearby fog, Few clouds
Nearby fog, Few clouds
 Viento del S
Viento: S 6 km/h
Temperatura: 5°C
Rocío: 4°C
Humedad: 93%
Barómetro: 1022 hPa
Resumen: Nearby Fog
Clouds: Few Clouds
Visibility: 10 km
Cloud details: Few Clouds 122 m
2022/11/29 13:30 LEVD 291330Z 17003KT 120V210 9999 VCFG FEW004 05/04 Q1022
LESA - Salamanca (civ/M, Spain
Distance from station: ONO 349km
Actualización: Tue, 29-Nov-2022 2:30pm CET
Despejado
Despejado
 Viento del varies
Viento: varies 4 km/h
Temperatura: 7°C
Rocío: 4°C
Humedad: 81%
Barómetro: 1022 hPa
Resumen: Despejado
Visibility: greater than 10 km
2022/11/29 13:30 LESA 291330Z VRB02KT CAVOK 07/04 Q1022
 
LEXJ - Santander/Paraya, Spain
Distance from station: NNO 247km
Actualización: Tue, 29-Nov-2022 2:30pm CET
Parcialmente nuboso
Parcialmente nuboso
 Viento del O
Viento: O 17 km/h
Temperatura: 13°C
Rocío: 10°C
Humedad: 82%
Barómetro: 1022 hPa
Clouds: Parcialmente nuboso
Visibility: 10 km
Cloud details: Few Clouds 975 m
Parcialmente nuboso 1372 m
2022/11/29 13:30 LEXJ 291330Z 28009KT 9999 FEW032 SCT045 13/10 Q1022
LEAS - Asturias/Aviles, Spain
Distance from station: NO 214km
Actualización: Tue, 29-Nov-2022 2:30pm CET
Muy nuboso
Muy nuboso
 Viento del NO
Viento: NO 6 km/h
Temperatura: 14°C
Rocío: 8°C
Humedad: 67%
Barómetro: 1022 hPa
Clouds: Muy nuboso
Visibility: 10 km
Cloud details: Few Clouds 1219 m
Muy nuboso 1524 m
2022/11/29 13:30 LEAS 291330Z 32003KT 280V010 9999 FEW040 BKN050 14/08 Q1022 NOSIG
 
LECO - La Coruna/Alvedr, Spain
Distance from station: ONO 222km
Actualización: Tue, 29-Nov-2022 2:30pm CET
Muy nuboso
Muy nuboso
 Viento del SSO
Viento: SSO 9 km/h
Temperatura: 14°C
Rocío: 9°C
Humedad: 72%
Barómetro: 1022 hPa
Clouds: Muy nuboso
Visibility: 10 km
Cloud details: Muy nuboso 1372 m
2022/11/29 13:30 LECO 291330Z 21005KT 180V240 9999 BKN045 14/09 Q1022 NOSIG
LEVX - Vigo/Peinador, Spain
Distance from station: O 214km
Actualización: Tue, 29-Nov-2022 2:30pm CET
Patches of fog, Muy nuboso
Patches of fog, Muy nuboso
 Viento del SSO
Viento: SSO 11 km/h
Temperatura: 11°C
Rocío: 8°C
Humedad: 82%
Barómetro: 1023 hPa
Resumen: Patches of Fog
Clouds: Muy nuboso
Visibility: 10 km
Cloud details: Few Clouds 305 m
Muy nuboso 1097 m
2022/11/29 13:30 LEVX 291330Z 21006KT 9999 BCFG FEW010 BKN036 11/08 Q1023 TEMPO NSW